Time;durP1;ratioP1;P1;durP2;ratioP2;P2;SDS_P1;SDS_P2;PMS_P1;PMS_P2;Temp;Humidity;BMP_temperature;BMP_pressure;BME280_temperature;BME280_humidity;BME280_pressure;Samples;Min_cycle;Max_cycle;Signal;HPM_P1;HPM_P2
2022/11/13 01:35:25;;;;;;;5.60;2.93;;;;;;;12.75;73.93;100581.44;6186286;23;20660;-84
2022/11/13 01:49:11;;;;;;;7.60;2.43;;;;;;;12.90;73.53;100582.59;6186642;23;20616;-84
2022/11/13 02:44:15;;;;;;;5.07;2.63;;;;;;;12.84;72.97;100583.69;6185132;23;20481;-84
2022/11/13 02:58:25;;;;;;;5.40;2.47;;;;;;;12.80;73.33;100582.13;6185578;23;20239;-84
2022/11/13 03:01:11;;;;;;;8.60;2.80;;;;;;;12.83;72.92;100582.00;6185074;23;20178;-84
2022/11/13 03:07:17;;;;;;;6.83;2.90;;;;;;;12.86;72.53;100579.25;6184137;23;20211;-84
2022/11/13 03:20:23;;;;;;;8.63;3.57;;;;;;;12.85;72.64;100577.53;6185577;23;20151;-84
2022/11/13 03:57:28;;;;;;;6.03;2.63;;;;;;;12.85;73.30;100574.91;6187235;23;20561;-84
2022/11/13 04:27:37;;;;;;;;;;;;;;;;;;;;;
2022/11/13 06:07:38;;;;;;;;;;;;;;;;;;;;;
2022/11/13 07:05:49;;;;;;;;;;;;;;;;;;;;;
2022/11/13 07:19:41;;;;;;;3.60;1.43;;;;;;;16.06;65.88;100593.72;6095167;23;20173;-85
2022/11/13 08:06:47;;;;;;;11.10;3.83;;;;;;;17.23;60.82;100577.56;6166010;23;20164;-86
2022/11/13 08:09:27;;;;;;;9.67;3.37;;;;;;;17.34;61.24;100581.34;6213705;23;20184;-86
2022/11/13 08:12:16;;;;;;;9.27;4.77;;;;;;;17.52;60.71;100580.28;6211752;23;20170;-86
2022/11/13 08:15:38;;;;;;;7.27;4.20;;;;;;;17.61;59.81;100576.28;6209689;23;20213;-86
2022/11/13 08:18:40;;;;;;;8.90;3.77;;;;;;;17.67;58.61;100574.09;6185462;23;20169;-86
2022/11/13 08:21:36;;;;;;;9.93;3.90;;;;;;;17.65;59.43;100581.28;6215422;23;20161;-86
2022/11/13 08:24:58;;;;;;;;;;;;;;;;;;;;;
2022/11/13 08:28:05;;;;;;;6.73;3.97;;;;;;;17.93;59.37;100564.59;6144871;23;20241;-86
2022/11/13 08:31:04;;;;;;;8.30;3.70;;;;;;;18.02;58.26;100568.50;6215088;23;20153;-86
2022/11/13 09:08:13;;;;;;;;;;;;;;;;;;;;;
2022/11/13 09:38:14;;;;;;;10.87;6.17;;;;;;;18.99;54.70;100526.03;6038312;23;20186;-89
2022/11/13 09:40:47;;;;;;;11.67;6.83;;;;;;;18.97;55.00;100527.97;6038403;23;20166;-89
2022/11/13 09:43:50;;;;;;;15.30;9.23;;;;;;;18.86;53.99;100523.34;6022916;23;20230;-90
2022/11/13 09:46:40;;;;;;;20.63;10.83;;;;;;;18.79;54.61;100519.34;6156837;23;20138;-89
2022/11/13 09:49:15;;;;;;;19.50;9.73;;;;;;;18.71;55.78;100519.00;6155110;23;20160;-89
2022/11/13 09:51:50;;;;;;;15.80;8.53;;;;;;;18.71;55.40;100511.03;6155544;23;20385;-89
2022/11/13 09:54:16;;;;;;;14.47;8.63;;;;;;;18.81;55.16;100511.31;6155121;23;20205;-90
2022/11/13 09:56:55;;;;;;;17.27;8.43;;;;;;;18.86;55.88;100512.72;6155098;23;20175;-90
2022/11/13 10:00:04;;;;;;;20.57;10.60;;;;;;;18.88;55.22;100508.16;6155094;23;20240;-89
2022/11/13 10:02:57;;;;;;;24.67;12.00;;;;;;;18.80;55.85;100512.25;6130280;23;20161;-89
2022/11/13 10:05:33;;;;;;;29.83;14.80;;;;;;;18.95;55.38;100501.47;6155126;23;20168;-91
2022/11/13 10:08:17;;;;;;;33.73;16.50;;;;;;;18.99;55.27;100510.97;6156593;23;20457;-89
2022/11/13 10:11:25;;;;;;;33.93;17.30;;;;;;;18.99;55.49;100505.66;6155037;23;20157;-89
2022/11/13 10:14:10;;;;;;;39.30;19.33;;;;;;;19.12;54.96;100499.50;6123351;23;20207;-90
2022/11/13 10:16:55;;;;;;;26.13;11.63;;;;;;;19.10;54.73;100490.78;6156489;23;20202;-89
2022/11/13 10:19:38;;;;;;;27.73;10.80;;;;;;;19.17;55.11;100492.09;6155136;23;20163;-90
2022/11/13 10:22:33;;;;;;;20.50;9.23;;;;;;;19.32;54.90;100496.38;6155287;23;20159;-89
2022/11/13 10:25:22;;;;;;;27.60;9.53;;;;;;;19.25;54.14;100495.09;6142309;23;20457;-89
2022/11/13 10:28:15;;;;;;;27.27;10.73;;;;;;;19.12;55.54;100480.91;6153742;23;20653;-89
2022/11/13 10:34:03;;;;;;;22.40;9.80;;;;;;;18.85;54.55;100487.09;6154474;23;20681;-89
2022/11/13 10:37:17;;;;;;;30.90;9.57;;;;;;;18.88;55.06;100475.41;6153987;23;20213;-90
2022/11/13 10:39:49;;;;;;;21.47;9.77;;;;;;;18.93;53.97;100476.81;6112669;23;20167;-90
2022/11/13 10:42:40;;;;;;;25.40;10.03;;;;;;;18.96;55.06;100473.94;6154487;23;20155;-89
2022/11/13 10:45:19;;;;;;;21.77;11.40;;;;;;;19.02;54.24;100460.22;6154654;23;20525;-88
2022/11/13 10:47:50;;;;;;;20.03;10.00;;;;;;;19.10;53.53;100465.06;6154775;23;20147;-88
2022/11/13 10:50:27;;;;;;;19.50;10.80;;;;;;;19.08;53.82;100460.81;6154518;23;20190;-88
2022/11/13 10:52:54;;;;;;;19.20;8.90;;;;;;;19.16;53.15;100453.16;6155486;23;20174;-88
2022/11/13 10:55:40;;;;;;;22.60;9.80;;;;;;;19.21;52.94;100451.06;6154090;23;20197;-88
2022/11/13 10:58:13;;;;;;;20.30;8.73;;;;;;;19.17;53.80;100453.06;6153222;23;20306;-88
2022/11/13 11:00:43;;;;;;;16.20;8.90;;;;;;;19.24;54.25;100442.84;6178821;23;20165;-88
2022/11/13 11:03:23;;;;;;;22.17;11.53;;;;;;;19.27;52.31;100440.00;6155139;23;20305;-88
2022/11/13 11:06:04;;;;;;;25.73;12.17;;;;;;;19.62;52.67;100433.16;6155472;23;20143;-88
2022/11/13 11:08:35;;;;;;;28.33;11.30;;;;;;;19.97;51.45;100431.53;6153856;23;20170;-88
2022/11/13 11:14:25;;;;;;;26.03;11.73;;;;;;;20.45;49.51;100415.69;6155424;23;20178;-88
2022/11/13 11:16:52;;;;;;;21.53;10.93;;;;;;;20.40;49.08;100409.84;6155083;23;20155;-87
2022/11/13 11:19:30;;;;;;;16.50;8.27;;;;;;;20.51;50.78;100412.59;6153836;23;20257;-86
2022/11/13 11:22:35;;;;;;;17.77;8.77;;;;;;;20.71;49.45;100407.50;6154317;23;20139;-88
2022/11/13 11:25:22;;;;;;;22.27;10.80;;;;;;;20.77;47.52;100408.84;6123720;23;20161;-87
2022/11/13 11:27:55;;;;;;;29.30;13.27;;;;;;;20.86;46.78;100404.66;6177499;23;20170;-88
2022/11/13 11:30:25;;;;;;;12.73;6.20;;;;;;;20.90;47.41;100401.63;6154746;23;20642;-88
2022/11/13 11:33:05;;;;;;;7.17;3.90;;;;;;;20.72;48.30;100403.03;6152101;23;20162;-88
2022/11/13 11:35:42;;;;;;;22.00;5.60;;;;;;;20.32;49.24;100404.22;6154915;23;20268;-88
2022/11/13 11:38:34;;;;;;;10.80;4.23;;;;;;;20.16;49.76;100399.13;6153659;23;20175;-88
2022/11/13 11:41:12;;;;;;;7.83;4.23;;;;;;;20.22;50.29;100401.34;6156164;23;20611;-88
2022/11/13 11:44:01;;;;;;;7.20;3.60;;;;;;;20.13;51.12;100400.19;6155867;23;20594;-88
2022/11/13 11:46:28;;;;;;;6.00;3.73;;;;;;;19.96;50.54;100395.25;6153342;23;20169;-88
2022/11/13 11:48:58;;;;;;;5.53;2.87;;;;;;;19.83;50.18;100402.41;6153634;23;20151;-89
2022/11/13 11:51:30;;;;;;;11.23;3.90;;;;;;;19.80;50.93;100391.97;6155428;23;20146;-88
2022/11/13 11:54:27;;;;;;;9.53;4.43;;;;;;;19.84;51.68;100395.25;6154414;23;20170;-88
2022/11/13 11:57:13;;;;;;;7.33;3.53;;;;;;;19.90;50.60;100379.72;6145295;23;20170;-88
2022/11/13 11:59:41;;;;;;;8.53;3.40;;;;;;;19.84;51.17;100380.13;6157648;23;20139;-88
2022/11/13 12:02:33;;;;;;;9.07;3.30;;;;;;;19.72;51.32;100378.34;6157131;23;20166;-88
2022/11/13 12:05:10;;;;;;;5.03;3.17;;;;;;;19.75;51.38;100375.47;6158002;23;20147;-88
2022/11/13 12:07:45;;;;;;;7.40;3.27;;;;;;;19.77;51.64;100364.72;6157609;23;20171;-88
2022/11/13 12:10:24;;;;;;;5.80;3.40;;;;;;;19.83;51.17;100372.28;6131584;23;20149;-88
2022/11/13 12:13:17;;;;;;;5.90;3.20;;;;;;;19.74;50.19;100371.09;6158148;23;20157;-88
2022/11/13 12:16:00;;;;;;;7.80;3.80;;;;;;;19.82;50.42;100366.09;6157684;23;20171;-88
2022/11/13 12:18:43;;;;;;;9.90;3.87;;;;;;;19.78;50.32;100361.09;6180763;23;20147;-88
2022/11/13 12:21:32;;;;;;;6.00;3.60;;;;;;;19.86;50.82;100361.41;6157865;23;20520;-88
2022/11/13 12:24:34;;;;;;;6.90;3.40;;;;;;;19.96;50.10;100355.31;6156058;23;20233;-88
2022/11/13 12:27:27;;;;;;;7.60;4.37;;;;;;;20.00;49.36;100355.94;6157332;23;20154;-88
2022/11/13 12:29:55;;;;;;;9.17;4.17;;;;;;;19.98;49.19;100355.19;6155993;23;20241;-88
2022/11/13 12:32:41;;;;;;;8.43;4.70;;;;;;;20.14;48.62;100353.13;6156984;23;20152;-88
2022/11/13 12:35:17;;;;;;;5.63;3.30;;;;;;;20.15;47.82;100349.53;6157269;23;20171;-88
2022/11/13 12:37:54;;;;;;;12.57;5.07;;;;;;;20.25;48.03;100355.91;6207631;23;20566;-88
2022/11/13 12:40:46;;;;;;;9.83;4.70;;;;;;;20.29;47.39;100349.38;6190667;23;20257;-88
2022/11/13 12:43:36;;;;;;;7.90;4.03;;;;;;;20.46;46.69;100348.16;6208489;23;20166;-87
2022/11/13 12:46:09;;;;;;;11.10;4.90;;;;;;;20.14;48.02;100348.66;6190403;23;20224;-88
2022/11/13 12:48:43;;;;;;;7.10;3.67;;;;;;;20.20;48.14;100340.22;6211725;23;20304;-87
2022/11/13 12:51:12;;;;;;;9.27;4.63;;;;;;;20.25;48.15;100347.06;6187849;23;20145;-87
2022/11/13 12:53:53;;;;;;;13.80;6.67;;;;;;;20.44;47.99;100334.94;6188292;23;20534;-88
2022/11/13 12:56:27;;;;;;;9.43;4.73;;;;;;;20.49;47.28;100342.59;6187536;23;20306;-88
2022/11/13 12:59:17;;;;;;;7.73;4.20;;;;;;;20.37;47.12;100331.03;6215738;23;20565;-88
2022/11/13 13:02:08;;;;;;;9.47;4.90;;;;;;;20.22;47.31;100340.13;6215706;23;20162;-88
2022/11/13 13:05:02;;;;;;;9.57;5.03;;;;;;;20.32;47.89;100329.66;6211371;23;20162;-88
2022/11/13 13:08:04;;;;;;;8.87;5.03;;;;;;;20.21;48.41;100336.59;6216277;23;20146;-88
2022/11/13 13:10:40;;;;;;;6.77;4.53;;;;;;;20.53;47.32;100333.41;6216343;23;20232;-88
2022/11/13 13:13:27;;;;;;;7.03;3.50;;;;;;;20.69;46.98;100329.50;6216268;23;20145;-88
2022/11/13 13:16:02;;;;;;;10.53;4.53;;;;;;;20.75;46.46;100323.66;6215772;23;20169;-88
2022/11/13 13:18:34;;;;;;;10.80;4.53;;;;;;;20.74;46.78;100329.13;6190120;23;20529;-88
2022/11/13 13:21:07;;;;;;;10.20;5.30;;;;;;;20.95;46.35;100316.00;6189935;23;20153;-88
2022/11/13 13:23:38;;;;;;;9.00;4.33;;;;;;;20.96;46.09;100320.34;6216181;23;20148;-89
2022/11/13 13:26:19;;;;;;;7.07;4.67;;;;;;;20.94;46.05;100319.63;6189932;23;20166;-88
2022/11/13 13:29:22;;;;;;;6.50;4.23;;;;;;;20.99;45.40;100318.28;6216449;23;20209;-89
2022/11/13 13:32:44;;;;;;;9.77;4.87;;;;;;;21.10;45.49;100313.03;6118812;23;20161;-88
2022/11/13 13:35:13;;;;;;;7.90;3.90;;;;;;;21.28;45.08;100316.06;6094803;23;20624;-89
2022/11/13 13:37:59;;;;;;;7.40;3.77;;;;;;;21.34;44.66;100311.13;6210423;23;20177;-88
2022/11/13 13:40:47;;;;;;;8.47;4.63;;;;;;;21.43;43.80;100313.03;6189336;23;20165;-88
2022/11/13 13:43:21;;;;;;;10.17;4.63;;;;;;;21.44;43.82;100311.22;6189052;23;20211;-89
2022/11/13 13:45:53;;;;;;;6.90;3.93;;;;;;;21.47;44.05;100303.00;6215567;23;20232;-89
2022/11/13 13:48:23;;;;;;;9.43;4.03;;;;;;;21.52;44.20;100308.81;6215780;23;20209;-89
2022/11/13 13:50:54;;;;;;;7.97;4.33;;;;;;;21.57;44.52;100295.09;6214489;23;20218;-89
2022/11/13 13:53:33;;;;;;;7.27;4.40;;;;;;;21.67;44.03;100296.09;6215672;23;20138;-90
2022/11/13 13:56:02;;;;;;;8.33;4.50;;;;;;;21.68;43.15;100295.94;6213688;23;20185;-89
2022/11/13 13:58:38;;;;;;;7.13;4.37;;;;;;;21.63;43.48;100299.97;6214911;23;20192;-88
2022/11/13 14:01:06;;;;;;;9.27;4.10;;;;;;;21.65;43.56;100298.00;6214568;23;20134;-89
2022/11/13 14:03:31;;;;;;;7.27;4.00;;;;;;;21.58;43.97;100307.47;6190095;23;20154;-89
2022/11/13 14:06:18;;;;;;;6.73;3.90;;;;;;;21.58;43.64;100307.47;6190163;23;20164;-89
2022/11/13 14:08:44;;;;;;;9.50;4.80;;;;;;;21.56;43.81;100310.28;6216423;23;20142;-89
2022/11/13 14:11:20;;;;;;;8.13;4.53;;;;;;;21.50;43.93;100313.44;6216030;23;20173;-89
2022/11/13 14:13:46;;;;;;;8.40;5.00;;;;;;;21.38;44.27;100307.22;6216462;23;20141;-89
2022/11/13 14:16:12;;;;;;;9.63;4.37;;;;;;;21.32;43.85;100310.41;6215834;23;20472;-88
2022/11/13 14:18:38;;;;;;;7.60;4.57;;;;;;;21.31;44.08;100315.84;6214887;23;20158;-89
2022/11/13 14:21:14;;;;;;;10.27;4.87;;;;;;;21.29;43.74;100310.63;6215134;23;20168;-88
2022/11/13 14:23:43;;;;;;;9.37;5.53;;;;;;;21.21;43.92;100314.84;6216313;23;20542;-89
2022/11/13 14:26:10;;;;;;;8.60;4.47;;;;;;;21.11;44.07;100314.72;6189759;23;20164;-89
2022/11/13 14:28:59;;;;;;;9.97;4.57;;;;;;;21.00;44.51;100306.66;6189666;23;20581;-89
2022/11/13 14:31:35;;;;;;;7.20;4.43;;;;;;;20.93;44.50;100309.94;6216514;23;20140;-89
2022/11/13 14:34:16;;;;;;;10.33;5.50;;;;;;;20.83;44.99;100301.81;6189671;23;20146;-88
2022/11/13 14:36:42;;;;;;;16.07;6.43;;;;;;;20.76;44.95;100303.22;6189472;23;20181;-88
2022/11/13 14:39:22;;;;;;;18.83;6.17;;;;;;;20.66;45.12;100297.75;6216481;23;20245;-89
2022/11/13 14:41:54;;;;;;;11.43;6.37;;;;;;;20.60;45.46;100300.00;6216151;23;20142;-88
2022/11/13 14:44:32;;;;;;;14.77;6.90;;;;;;;20.49;45.89;100305.31;6215854;23;20138;-89
2022/11/13 14:47:03;;;;;;;18.70;7.70;;;;;;;20.39;46.18;100293.66;6215677;23;20149;-89
2022/11/13 14:49:36;;;;;;;16.10;7.70;;;;;;;20.25;46.46;100304.47;6215822;23;20604;-88
2022/11/13 14:52:02;;;;;;;20.23;8.53;;;;;;;20.09;46.52;100302.91;6216044;23;20150;-89
2022/11/13 14:54:33;;;;;;;25.00;8.97;;;;;;;19.95;46.77;100305.72;6215552;23;20174;-89
2022/11/13 14:57:10;;;;;;;18.27;8.60;;;;;;;19.63;47.84;100303.69;6189504;23;20177;-89
2022/11/13 14:59:36;;;;;;;13.80;7.93;;;;;;;19.54;47.85;100307.84;6215938;23;20177;-89
2022/11/13 15:02:02;;;;;;;21.67;8.67;;;;;;;19.40;47.95;100302.63;6216344;23;20149;-89
2022/11/13 15:04:28;;;;;;;14.27;7.13;;;;;;;19.03;49.18;100313.13;6189679;23;20449;-88
2022/11/13 15:06:58;;;;;;;17.33;8.00;;;;;;;18.69;50.17;100303.09;6215476;23;20163;-88
2022/11/13 15:09:25;;;;;;;18.60;8.33;;;;;;;18.48;50.84;100311.63;6215914;23;20134;-88
2022/11/13 15:11:51;;;;;;;20.00;8.50;;;;;;;18.40;50.86;100304.13;6189745;23;20162;-88
2022/11/13 15:14:19;;;;;;;26.67;9.60;;;;;;;18.24;51.37;100308.75;6215696;23;20580;-88
2022/11/13 15:16:46;;;;;;;16.17;9.43;;;;;;;18.07;51.94;100307.22;6189212;23;20181;-88
2022/11/13 15:19:19;;;;;;;15.17;8.87;;;;;;;18.06;51.93;100296.69;6189136;23;20161;-88
2022/11/13 15:21:47;;;;;;;22.87;11.23;;;;;;;17.89;52.45;100305.75;6215421;23;20158;-88
2022/11/13 15:24:13;;;;;;;21.00;10.57;;;;;;;17.59;53.57;100300.56;6189461;23;20169;-88
2022/11/13 15:26:38;;;;;;;22.07;11.70;;;;;;;17.54;53.57;100297.34;6213885;23;20151;-88
2022/11/13 15:29:05;;;;;;;22.03;10.13;;;;;;;17.51;53.60;100297.50;6189159;23;20245;-88
2022/11/13 15:31:36;;;;;;;24.87;11.63;;;;;;;17.44;53.79;100295.34;6217469;23;20150;-88
2022/11/13 15:34:02;;;;;;;22.13;10.47;;;;;;;17.42;53.98;100300.75;6218344;23;20219;-88
2022/11/13 15:36:28;;;;;;;23.83;9.87;;;;;;;17.33;54.30;100298.66;6190947;23;20221;-88
2022/11/13 15:38:53;;;;;;;23.77;11.20;;;;;;;17.23;54.51;100307.28;6218082;23;20145;-88
2022/11/13 15:41:21;;;;;;;22.33;10.67;;;;;;;17.18;54.75;100305.78;6191174;23;20165;-88
2022/11/13 15:43:51;;;;;;;21.33;11.07;;;;;;;17.12;55.00;100307.91;6191081;23;20165;-88
2022/11/13 15:46:18;;;;;;;37.07;15.00;;;;;;;17.07;55.10;100307.34;6190987;23;20648;-88
2022/11/13 15:48:45;;;;;;;48.07;19.53;;;;;;;17.03;55.27;100303.19;6217257;23;20236;-88
2022/11/13 15:51:34;;;;;;;23.40;11.90;;;;;;;17.04;55.44;100313.69;6217977;23;20184;-88
2022/11/13 15:54:13;;;;;;;18.67;9.97;;;;;;;16.99;55.52;100309.59;6218307;23;20145;-90
2022/11/13 15:56:39;;;;;;;17.20;9.20;;;;;;;16.75;56.31;100311.91;6216246;23;20484;-90
2022/11/13 15:59:04;;;;;;;19.13;9.87;;;;;;;16.68;56.70;100315.03;6217361;23;20568;-90
2022/11/13 16:01:30;;;;;;;16.33;8.73;;;;;;;16.61;56.93;100311.03;6218330;23;20150;-90
2022/11/13 16:03:57;;;;;;;16.73;8.70;;;;;;;16.53;57.24;100308.84;6191111;23;20158;-89
2022/11/13 16:06:23;;;;;;;17.60;8.80;;;;;;;16.41;57.52;100314.81;6216069;23;20203;-90
2022/11/13 16:08:48;;;;;;;24.97;10.00;;;;;;;16.28;58.03;100321.72;6217910;23;20466;-90
2022/11/13 16:11:18;;;;;;;21.63;9.20;;;;;;;16.25;58.23;100322.75;6217194;23;20588;-90
2022/11/13 16:13:45;;;;;;;18.53;8.77;;;;;;;16.23;58.35;100322.00;6217158;23;20146;-90
2022/11/13 16:16:22;;;;;;;24.07;8.97;;;;;;;16.16;58.70;100327.75;6190903;23;20203;-90
2022/11/13 16:18:49;;;;;;;16.57;7.83;;;;;;;16.17;58.63;100322.34;6217378;23;20585;-90
2022/11/13 16:21:16;;;;;;;15.23;8.40;;;;;;;16.07;58.92;100329.09;6190881;23;20158;-90
2022/11/13 16:23:41;;;;;;;14.97;7.33;;;;;;;15.85;59.96;100326.78;6190848;23;20211;-89
2022/11/13 16:26:27;;;;;;;15.10;7.53;;;;;;;15.74;60.47;100336.25;6217065;23;20525;-90
2022/11/13 16:28:53;;;;;;;19.10;8.57;;;;;;;15.61;61.11;100340.50;6217554;23;20161;-89
2022/11/13 16:31:22;;;;;;;16.13;8.17;;;;;;;15.61;61.09;100329.94;6190702;23;20160;-90
2022/11/13 16:33:48;;;;;;;24.30;8.93;;;;;;;15.57;61.08;100333.66;6216898;23;20149;-89
2022/11/13 16:36:19;;;;;;;21.33;8.97;;;;;;;15.52;60.92;100336.56;6190309;23;20197;-89
2022/11/13 16:38:45;;;;;;;22.60;9.30;;;;;;;15.49;60.90;100331.44;6216881;23;20136;-90
2022/11/13 16:41:13;;;;;;;19.93;10.60;;;;;;;15.45;60.71;100335.16;6217006;23;20215;-90
2022/11/13 16:43:39;;;;;;;23.33;11.90;;;;;;;15.35;60.74;100333.94;6217056;23;20149;-87
2022/11/13 16:46:31;;;;;;;26.93;11.83;;;;;;;15.22;61.04;100330.25;6216924;23;20186;-89
2022/11/13 16:48:57;;;;;;;26.80;12.70;;;;;;;15.11;61.92;100324.66;6216844;23;20494;-89
2022/11/13 16:51:23;;;;;;;25.87;12.93;;;;;;;15.07;61.86;100331.03;6190604;23;20651;-89
2022/11/13 16:53:48;;;;;;;26.13;13.63;;;;;;;15.04;61.53;100337.31;6216779;23;20145;-89
2022/11/13 16:56:19;;;;;;;25.03;12.80;;;;;;;14.94;61.79;100328.16;6216746;23;20612;-90
2022/11/13 16:58:46;;;;;;;30.00;15.33;;;;;;;14.89;61.83;100340.75;6214465;23;20465;-89
2022/11/13 17:01:15;;;;;;;30.30;14.60;;;;;;;14.85;61.88;100331.28;6216728;23;20152;-89
2022/11/13 17:03:42;;;;;;;25.33;12.73;;;;;;;14.80;61.81;100341.22;6191041;23;20159;-90
2022/11/13 17:06:31;;;;;;;28.90;14.63;;;;;;;14.66;62.02;100339.28;6190486;23;20156;-90
2022/11/13 17:09:00;;;;;;;123.10;33.37;;;;;;;14.61;62.36;100338.66;6217038;23;20136;-89
2022/11/13 17:11:30;;;;;;;39.00;17.57;;;;;;;14.59;62.61;100339.66;6190368;23;20159;-89
2022/11/13 17:13:58;;;;;;;26.83;13.77;;;;;;;14.50;62.63;100342.75;6190379;23;20555;-90
2022/11/13 17:16:27;;;;;;;32.23;15.90;;;;;;;14.47;62.70;100342.91;6216590;23;20177;-90
2022/11/13 17:18:54;;;;;;;36.73;17.20;;;;;;;14.45;62.85;100344.75;6216578;23;20197;-90
2022/11/13 17:21:23;;;;;;;46.33;19.13;;;;;;;14.39;62.68;100342.41;6216856;23;20462;-90
2022/11/13 17:24:00;;;;;;;47.13;17.13;;;;;;;14.31;62.96;100336.66;6216475;23;20154;-90
2022/11/13 17:26:28;;;;;;;57.03;22.47;;;;;;;14.24;63.11;100345.78;6217204;23;20168;-90
2022/11/13 17:28:55;;;;;;;54.50;21.73;;;;;;;14.18;63.21;100340.81;6216438;23;20150;-90
2022/11/13 17:31:21;;;;;;;55.80;23.73;;;;;;;14.14;63.34;100345.38;6216425;23;20146;-89
2022/11/13 17:33:52;;;;;;;66.97;24.37;;;;;;;14.08;63.41;100341.25;6216368;23;20151;-89
2022/11/13 17:36:20;;;;;;;55.43;23.27;;;;;;;14.08;63.89;100341.25;6216181;23;20202;-90
2022/11/13 17:38:47;;;;;;;39.57;20.13;;;;;;;14.03;63.88;100337.09;6217057;23;20139;-89
2022/11/13 17:41:15;;;;;;;38.67;18.93;;;;;;;13.94;63.79;100341.03;6216207;23;20484;-89
2022/11/13 17:43:42;;;;;;;43.63;20.50;;;;;;;13.88;63.88;100338.69;6216279;23;20150;-89
2022/11/13 17:46:15;;;;;;;42.67;18.13;;;;;;;13.85;64.17;100344.13;6216574;23;20147;-89
2022/11/13 17:48:41;;;;;;;36.30;18.77;;;;;;;13.82;63.85;100351.28;6216256;23;20280;-90
2022/11/13 17:51:13;;;;;;;40.70;19.73;;;;;;;13.73;64.31;100342.03;6216257;23;20163;-90
2022/11/13 17:53:39;;;;;;;31.73;15.17;;;;;;;13.70;64.67;100344.84;6216463;23;20147;-90
2022/11/13 17:56:09;;;;;;;26.73;14.00;;;;;;;13.71;64.63;100341.25;6214879;23;20218;-89
2022/11/13 17:58:40;;;;;;;27.50;14.50;;;;;;;13.68;64.32;100338.75;6190305;23;20161;-90
2022/11/13 18:01:12;;;;;;;31.13;15.37;;;;;;;13.63;64.61;100337.25;6189872;23;20161;-90
2022/11/13 18:03:39;;;;;;;31.77;15.40;;;;;;;13.56;64.89;100328.78;6216474;23;20142;-89
2022/11/13 18:06:09;;;;;;;29.77;14.17;;;;;;;13.49;65.17;100337.91;6189830;23;20224;-89
2022/11/13 18:08:40;;;;;;;26.30;14.37;;;;;;;13.44;65.06;100332.00;6216058;23;20538;-90
2022/11/13 18:11:16;;;;;;;27.63;14.67;;;;;;;13.42;65.16;100334.69;6216441;23;20138;-90
2022/11/13 18:13:43;;;;;;;34.27;15.03;;;;;;;13.41;65.40;100338.25;6216736;23;20217;-89
2022/11/13 18:16:14;;;;;;;27.37;13.83;;;;;;;13.30;65.42;100326.47;6216132;23;20275;-89
2022/11/13 18:18:41;;;;;;;26.43;13.73;;;;;;;13.21;65.88;100334.78;6216019;23;20151;-89
2022/11/13 18:21:13;;;;;;;28.20;13.47;;;;;;;13.15;66.55;100327.16;6215911;23;20146;-90
2022/11/13 18:23:39;;;;;;;28.30;13.63;;;;;;;13.16;66.79;100320.97;6215906;23;20180;-90
2022/11/13 18:26:11;;;;;;;21.63;12.40;;;;;;;13.16;66.39;100323.59;6216192;23;20219;-87
2022/11/13 18:28:39;;;;;;;25.93;12.63;;;;;;;13.07;66.32;100324.88;6216009;23;20141;-89
2022/11/13 18:31:15;;;;;;;35.10;13.33;;;;;;;12.99;66.75;100319.06;6215823;23;20154;-89
2022/11/13 18:33:42;;;;;;;25.73;11.83;;;;;;;12.90;67.12;100320.31;6216099;23;20153;-89
2022/11/13 18:36:09;;;;;;;26.13;13.00;;;;;;;12.94;67.29;100315.78;6215629;23;20181;-90
2022/11/13 18:38:35;;;;;;;31.80;11.97;;;;;;;12.90;67.26;100315.03;6215584;23;20204;-89
2022/11/13 18:41:27;;;;;;;29.10;14.00;;;;;;;12.85;67.50;100311.75;6189467;23;20169;-89
2022/11/13 18:43:54;;;;;;;46.17;17.20;;;;;;;12.83;67.62;100312.75;6211733;23;20596;-89
2022/11/13 18:46:21;;;;;;;39.23;14.63;;;;;;;12.85;67.42;100316.16;6215684;23;20214;-89
2022/11/13 18:48:48;;;;;;;36.60;14.47;;;;;;;12.80;67.45;100312.88;6215662;23;20547;-89
2022/11/13 18:51:18;;;;;;;30.40;13.10;;;;;;;12.75;67.62;100315.69;6215086;23;20180;-89
2022/11/13 18:53:47;;;;;;;29.27;12.80;;;;;;;12.74;67.93;100324.50;6211698;23;20150;-87
2022/11/13 18:56:15;;;;;;;24.70;11.47;;;;;;;12.70;67.89;100332.59;6213037;23;20173;-89
2022/11/13 18:58:43;;;;;;;30.17;13.47;;;;;;;12.64;67.91;100328.44;6187688;23;20592;-89
2022/11/13 19:01:27;;;;;;;26.33;11.93;;;;;;;12.56;68.47;100327.91;6214056;23;20593;-89
2022/11/13 19:03:54;;;;;;;27.90;11.93;;;;;;;12.58;68.56;100318.16;6187826;23;20156;-89
2022/11/13 19:06:22;;;;;;;28.50;13.00;;;;;;;12.48;68.75;100319.47;6215268;23;20238;-89
2022/11/13 19:08:53;;;;;;;36.80;14.43;;;;;;;12.39;68.75;100319.88;6215409;23;20192;-89
2022/11/13 19:11:19;;;;;;;29.57;12.77;;;;;;;12.37;68.99;100315.59;6215581;23;20525;-89
2022/11/13 19:13:45;;;;;;;27.43;12.83;;;;;;;12.27;69.14;100322.97;6215592;23;20604;-89
2022/11/13 19:16:14;;;;;;;27.23;13.37;;;;;;;12.31;69.18;100325.44;6215399;23;20187;-88
2022/11/13 19:18:41;;;;;;;26.33;12.57;;;;;;;12.39;68.99;100317.25;6215398;23;20172;-88
2022/11/13 19:21:12;;;;;;;28.03;13.47;;;;;;;12.39;69.13;100312.00;6216056;23;20161;-88
2022/11/13 19:23:37;;;;;;;23.97;12.30;;;;;;;12.40;69.34;100320.69;6215751;23;20157;-89
2022/11/13 19:26:03;;;;;;;20.80;10.30;;;;;;;12.36;69.36;100317.38;6215777;23;20158;-89
2022/11/13 19:28:29;;;;;;;23.30;11.83;;;;;;;12.39;68.97;100319.88;6215724;23;20781;-88
2022/11/13 19:30:55;;;;;;;27.47;11.87;;;;;;;12.33;68.95;100318.34;6215472;23;20251;-89
2022/11/13 19:33:25;;;;;;;23.93;10.73;;;;;;;12.33;68.77;100323.59;6215806;23;20171;-88
2022/11/13 19:35:52;;;;;;;25.53;12.33;;;;;;;12.36;68.47;100321.75;6215234;23;20176;-89
2022/11/13 19:38:19;;;;;;;25.43;11.80;;;;;;;12.33;68.42;100322.75;6214379;23;20276;-88
2022/11/13 19:40:51;;;;;;;21.03;11.80;;;;;;;12.32;68.42;100327.13;6189234;23;20191;-89
2022/11/13 19:43:18;;;;;;;26.47;12.80;;;;;;;12.27;68.53;100328.25;6189144;23;20532;-89
2022/11/13 19:45:45;;;;;;;27.17;12.17;;;;;;;12.27;68.11;100322.97;6215376;23;20576;-89
2022/11/13 19:48:12;;;;;;;22.77;10.87;;;;;;;12.29;68.09;100329.03;6215346;23;20146;-89
2022/11/13 19:50:38;;;;;;;22.70;11.90;;;;;;;12.21;68.37;100323.25;6216002;23;20151;-88
2022/11/13 19:53:05;;;;;;;22.47;11.60;;;;;;;12.15;68.19;100318.22;6215011;23;20152;-89
2022/11/13 19:55:33;;;;;;;22.67;11.20;;;;;;;12.05;68.63;100322.16;6214455;23;20762;-88
2022/11/13 19:58:03;;;;;;;20.83;10.53;;;;;;;11.99;68.83;100318.00;6216012;23;20187;-89
2022/11/13 20:00:28;;;;;;;22.43;11.50;;;;;;;11.99;68.86;100325.00;6215346;23;20147;-89
2022/11/13 20:02:55;;;;;;;24.33;11.07;;;;;;;12.02;68.87;100317.00;6215255;23;20187;-89
2022/11/13 20:05:22;;;;;;;22.40;10.13;;;;;;;12.01;68.74;100315.28;6215229;23;20206;-89
2022/11/13 20:07:49;;;;;;;22.93;11.13;;;;;;;11.93;68.78;100307.72;6215264;23;20175;-89
2022/11/13 20:10:15;;;;;;;22.77;11.57;;;;;;;11.99;68.80;100312.75;6215568;23;20160;-89
2022/11/13 20:12:42;;;;;;;19.17;10.07;;;;;;;11.96;68.76;100307.59;6215221;23;20152;-89
2022/11/13 20:15:09;;;;;;;21.17;10.23;;;;;;;11.99;68.36;100314.50;6215154;23;20176;-88
2022/11/13 20:17:35;;;;;;;22.10;10.00;;;;;;;11.94;68.52;100313.81;6190950;23;20175;-89
2022/11/13 20:20:01;;;;;;;22.00;9.77;;;;;;;11.89;68.77;100308.75;6217442;23;20149;-89
2022/11/13 20:22:26;;;;;;;19.07;8.97;;;;;;;11.85;68.53;100311.53;6217063;23;20213;-89
2022/11/13 20:24:53;;;;;;;18.90;9.00;;;;;;;11.82;68.85;100303.81;6216941;23;20147;-89
2022/11/13 20:27:20;;;;;;;25.30;9.97;;;;;;;11.77;68.88;100298.72;6217079;23;20158;-89
2022/11/13 20:29:45;;;;;;;19.33;9.33;;;;;;;11.80;69.04;100300.38;6216996;23;20216;-89
2022/11/13 20:32:12;;;;;;;18.33;8.63;;;;;;;11.80;69.11;100300.38;6217572;23;20232;-89
2022/11/13 20:34:38;;;;;;;28.43;11.43;;;;;;;11.74;69.20;100300.63;6217514;23;20147;-89
2022/11/13 20:37:04;;;;;;;29.23;10.00;;;;;;;11.74;69.45;100295.38;6216749;23;20205;-89
2022/11/13 20:39:31;;;;;;;21.67;9.03;;;;;;;11.79;69.05;100298.69;6191038;23;20245;-89